CYVV

Wiarton Airport

Wiarton, , Canada
TAF CYVV 211939Z 2120/2123 08012KT P6SM FEW030 BKN150 TEMPO 2120/2123 P6SM -SHRA BKN030 BKN150 RMK NXT FCST WILL BE ISSUED AT 221045Z
Issued Valid From Valid To
Jul-21 @ 19:39 UTC
(3 hours ago)
Jul-21 @ 20:00 UTC
(3 hours ago)
Jul-21 @ 23:00 UTC
(in 22 minutes)
Jul-21 @ 20:00 to Jul-21 @ 23:00
TAF CYVV 211939Z 2120/2123 08012KT P6SM FEW030 BKN150
Wind Visibility Clouds
80° at 12 knots Greater than 6 miles
  • Few at 3,000' AGL
  • Broken at 15,000' AGL
Temporary Jul-21 @ 20:00 to Jul-21 @ 23:00
TEMPO 2120/2123 P6SM -SHRA BKN030 BKN150 RMK NXT FCST WILL BE ISSUED AT 221045Z
Visibility Clouds Conditions
Greater than 6 miles
  • Broken at 3,000' AGL
  • Broken at 15,000' AGL
  • Light Rain
TAF CYVV 211939Z 2120/2123 08012KT P6SM FEW030 BKN150 TEMPO 2120/2123 P6SM -SHRA BKN030 BKN150 RMK NXT FCST WILL BE ISSUED AT 221045Z
Issued Jul-21 @ 19:39 UTC
(3 hours ago)
Valid From Jul-21 @ 20:00 UTC
(3 hours ago)
Valid To Jul-21 @ 23:00 UTC
(in 22 minutes)
Jul-21 @ 20:00 - Jul-21 @ 23:00
Wind Visibility
80° at 12 knots Greater than 6 miles
Clouds
  • Few at 3,000' AGL
  • Broken at 15,000' AGL
Temporary Jul-21 @ 20:00 - Jul-21 @ 23:00
Clouds
  • Broken at 3,000' AGL
  • Broken at 15,000' AGL
Conditions
  • Light Rain